sensor_id;sensor_type;location;lat;lon;timestamp;P1;durP1;ratioP1;P2;durP2;ratioP2
35126;SDS011;21300;52.006;5.798;2022-09-09T00:00:41;7.57;;;2.72;;
35126;SDS011;21300;52.006;5.798;2022-09-09T00:03:17;3.78;;;2.67;;
35126;SDS011;21300;52.006;5.798;2022-09-09T00:08:50;3.13;;;2.80;;
35126;SDS011;21300;52.006;5.798;2022-09-09T00:11:31;4.95;;;3.00;;
35126;SDS011;21300;52.006;5.798;2022-09-09T00:14:08;4.05;;;2.90;;
35126;SDS011;21300;52.006;5.798;2022-09-09T00:16:41;5.85;;;2.80;;
35126;SDS011;21300;52.006;5.798;2022-09-09T00:19:18;5.93;;;3.17;;
35126;SDS011;21300;52.006;5.798;2022-09-09T00:22:07;4.85;;;3.08;;
35126;SDS011;21300;52.006;5.798;2022-09-09T00:24:43;4.05;;;3.15;;
35126;SDS011;21300;52.006;5.798;2022-09-09T00:27:16;5.03;;;3.35;;
35126;SDS011;21300;52.006;5.798;2022-09-09T00:29:58;3.83;;;3.42;;
35126;SDS011;21300;52.006;5.798;2022-09-09T00:32:37;6.57;;;3.10;;
35126;SDS011;21300;52.006;5.798;2022-09-09T00:35:04;5.05;;;3.20;;
35126;SDS011;21300;52.006;5.798;2022-09-09T00:37:41;5.60;;;3.30;;
35126;SDS011;21300;52.006;5.798;2022-09-09T00:40:16;3.95;;;3.10;;
35126;SDS011;21300;52.006;5.798;2022-09-09T00:42:47;4.90;;;3.47;;
35126;SDS011;21300;52.006;5.798;2022-09-09T00:48:12;4.70;;;3.00;;
35126;SDS011;21300;52.006;5.798;2022-09-09T00:50:46;7.05;;;3.35;;
35126;SDS011;21300;52.006;5.798;2022-09-09T00:53:51;4.32;;;3.38;;
35126;SDS011;21300;52.006;5.798;2022-09-09T00:56:20;6.68;;;3.38;;
35126;SDS011;21300;52.006;5.798;2022-09-09T01:01:50;4.60;;;2.97;;
35126;SDS011;21300;52.006;5.798;2022-09-09T01:04:20;5.82;;;2.97;;
35126;SDS011;21300;52.006;5.798;2022-09-09T01:06:55;5.18;;;2.95;;
35126;SDS011;21300;52.006;5.798;2022-09-09T01:10:03;4.47;;;2.75;;
35126;SDS011;21300;52.006;5.798;2022-09-09T01:12:45;5.82;;;2.78;;
35126;SDS011;21300;52.006;5.798;2022-09-09T01:15:13;4.40;;;3.13;;
35126;SDS011;21300;52.006;5.798;2022-09-09T01:18:08;3.95;;;2.60;;
35126;SDS011;21300;52.006;5.798;2022-09-09T01:28:50;4.47;;;2.22;;
35126;SDS011;21300;52.006;5.798;2022-09-09T01:31:24;6.78;;;2.00;;
35126;SDS011;21300;52.006;5.798;2022-09-09T01:33:53;3.28;;;2.42;;
35126;SDS011;21300;52.006;5.798;2022-09-09T01:39:02;4.45;;;2.28;;
35126;SDS011;21300;52.006;5.798;2022-09-09T01:41:28;4.82;;;2.05;;
35126;SDS011;21300;52.006;5.798;2022-09-09T01:43:54;4.32;;;2.28;;
35126;SDS011;21300;52.006;5.798;2022-09-09T01:46:22;2.17;;;1.85;;
35126;SDS011;21300;52.006;5.798;2022-09-09T01:48:49;5.35;;;2.15;;
35126;SDS011;21300;52.006;5.798;2022-09-09T01:51:16;6.93;;;2.13;;
35126;SDS011;21300;52.006;5.798;2022-09-09T01:53:42;4.55;;;2.13;;
35126;SDS011;21300;52.006;5.798;2022-09-09T01:58:54;3.05;;;1.98;;
35126;SDS011;21300;52.006;5.798;2022-09-09T02:06:39;3.70;;;1.80;;
35126;SDS011;21300;52.006;5.798;2022-09-09T02:09:06;3.47;;;2.03;;
35126;SDS011;21300;52.006;5.798;2022-09-09T02:11:35;3.78;;;2.20;;
35126;SDS011;21300;52.006;5.798;2022-09-09T02:14:07;4.68;;;2.10;;
35126;SDS011;21300;52.006;5.798;2022-09-09T02:19:16;4.75;;;1.90;;
35126;SDS011;21300;52.006;5.798;2022-09-09T02:21:50;3.50;;;2.13;;
35126;SDS011;21300;52.006;5.798;2022-09-09T02:24:20;4.80;;;2.25;;
35126;SDS011;21300;52.006;5.798;2022-09-09T02:27:06;2.20;;;1.88;;
35126;SDS011;21300;52.006;5.798;2022-09-09T02:29:38;4.10;;;2.53;;
35126;SDS011;21300;52.006;5.798;2022-09-09T02:32:07;2.42;;;2.13;;
35126;SDS011;21300;52.006;5.798;2022-09-09T02:34:39;2.97;;;2.10;;
35126;SDS011;21300;52.006;5.798;2022-09-09T02:37:08;4.88;;;2.05;;
35126;SDS011;21300;52.006;5.798;2022-09-09T02:39:35;2.65;;;2.00;;
35126;SDS011;21300;52.006;5.798;2022-09-09T02:42:02;5.05;;;2.28;;
35126;SDS011;21300;52.006;5.798;2022-09-09T02:44:29;3.42;;;2.28;;
35126;SDS011;21300;52.006;5.798;2022-09-09T02:47:11;3.05;;;2.10;;
35126;SDS011;21300;52.006;5.798;2022-09-09T02:58:15;4.13;;;1.92;;
35126;SDS011;21300;52.006;5.798;2022-09-09T03:00:43;4.68;;;2.30;;
35126;SDS011;21300;52.006;5.798;2022-09-09T03:03:11;5.05;;;1.90;;
35126;SDS011;21300;52.006;5.798;2022-09-09T03:05:36;5.97;;;2.13;;
35126;SDS011;21300;52.006;5.798;2022-09-09T03:08:04;5.25;;;2.50;;
35126;SDS011;21300;52.006;5.798;2022-09-09T03:10:31;4.05;;;2.03;;
35126;SDS011;21300;52.006;5.798;2022-09-09T03:12:57;4.13;;;2.30;;
35126;SDS011;21300;52.006;5.798;2022-09-09T03:15:23;5.55;;;2.30;;
35126;SDS011;21300;52.006;5.798;2022-09-09T03:17:48;6.55;;;2.00;;
35126;SDS011;21300;52.006;5.798;2022-09-09T03:20:14;5.68;;;2.10;;
35126;SDS011;21300;52.006;5.798;2022-09-09T03:22:40;3.70;;;2.20;;
35126;SDS011;21300;52.006;5.798;2022-09-09T03:25:06;4.72;;;2.47;;
35126;SDS011;21300;52.006;5.798;2022-09-09T03:27:31;3.65;;;2.50;;
35126;SDS011;21300;52.006;5.798;2022-09-09T03:29:57;4.93;;;2.30;;
35126;SDS011;21300;52.006;5.798;2022-09-09T03:32:24;2.22;;;1.63;;
35126;SDS011;21300;52.006;5.798;2022-09-09T03:34:51;2.45;;;2.25;;
35126;SDS011;21300;52.006;5.798;2022-09-09T03:37:17;6.80;;;2.28;;
35126;SDS011;21300;52.006;5.798;2022-09-09T03:39:46;5.03;;;2.30;;
35126;SDS011;21300;52.006;5.798;2022-09-09T03:42:12;5.22;;;2.08;;
35126;SDS011;21300;52.006;5.798;2022-09-09T03:44:45;7.10;;;2.47;;
35126;SDS011;21300;52.006;5.798;2022-09-09T03:47:19;3.10;;;2.40;;
35126;SDS011;21300;52.006;5.798;2022-09-09T03:49:46;3.20;;;2.45;;
35126;SDS011;21300;52.006;5.798;2022-09-09T03:52:13;4.20;;;2.42;;
35126;SDS011;21300;52.006;5.798;2022-09-09T03:54:39;4.22;;;1.98;;
35126;SDS011;21300;52.006;5.798;2022-09-09T03:57:06;4.88;;;2.33;;
35126;SDS011;21300;52.006;5.798;2022-09-09T03:59:32;4.97;;;2.00;;
35126;SDS011;21300;52.006;5.798;2022-09-09T04:01:58;6.75;;;2.35;;
35126;SDS011;21300;52.006;5.798;2022-09-09T04:04:24;2.30;;;1.90;;
35126;SDS011;21300;52.006;5.798;2022-09-09T04:06:51;3.53;;;2.10;;
35126;SDS011;21300;52.006;5.798;2022-09-09T04:09:17;7.25;;;2.50;;
35126;SDS011;21300;52.006;5.798;2022-09-09T04:11:43;4.10;;;2.38;;
35126;SDS011;21300;52.006;5.798;2022-09-09T04:14:09;3.72;;;2.17;;
35126;SDS011;21300;52.006;5.798;2022-09-09T04:16:34;3.90;;;2.10;;
35126;SDS011;21300;52.006;5.798;2022-09-09T04:19:03;5.60;;;2.50;;
35126;SDS011;21300;52.006;5.798;2022-09-09T04:21:32;3.85;;;2.60;;
35126;SDS011;21300;52.006;5.798;2022-09-09T04:23:58;3.17;;;2.38;;
35126;SDS011;21300;52.006;5.798;2022-09-09T04:26:24;4.72;;;2.00;;
35126;SDS011;21300;52.006;5.798;2022-09-09T04:28:50;5.53;;;2.50;;
35126;SDS011;21300;52.006;5.798;2022-09-09T04:31:17;5.13;;;2.35;;
35126;SDS011;21300;52.006;5.798;2022-09-09T04:33:46;6.07;;;2.60;;
35126;SDS011;21300;52.006;5.798;2022-09-09T04:36:12;5.15;;;2.35;;
35126;SDS011;21300;52.006;5.798;2022-09-09T04:38:38;5.25;;;2.40;;
35126;SDS011;21300;52.006;5.798;2022-09-09T04:41:04;7.03;;;2.65;;
35126;SDS011;21300;52.006;5.798;2022-09-09T04:43:30;5.93;;;2.65;;
35126;SDS011;21300;52.006;5.798;2022-09-09T04:45:56;5.55;;;2.50;;
35126;SDS011;21300;52.006;5.798;2022-09-09T04:48:24;5.00;;;2.90;;
35126;SDS011;21300;52.006;5.798;2022-09-09T04:50:57;7.38;;;2.65;;
35126;SDS011;21300;52.006;5.798;2022-09-09T04:53:24;9.00;;;2.50;;
35126;SDS011;21300;52.006;5.798;2022-09-09T04:55:51;8.27;;;2.40;;
35126;SDS011;21300;52.006;5.798;2022-09-09T05:00:51;5.80;;;2.10;;
35126;SDS011;21300;52.006;5.798;2022-09-09T05:03:17;5.15;;;2.40;;
35126;SDS011;21300;52.006;5.798;2022-09-09T05:05:44;4.15;;;2.10;;
35126;SDS011;21300;52.006;5.798;2022-09-09T05:08:09;4.30;;;2.50;;
35126;SDS011;21300;52.006;5.798;2022-09-09T05:10:36;8.85;;;2.88;;
35126;SDS011;21300;52.006;5.798;2022-09-09T05:13:03;4.45;;;2.22;;
35126;SDS011;21300;52.006;5.798;2022-09-09T05:15:30;9.10;;;2.85;;
35126;SDS011;21300;52.006;5.798;2022-09-09T05:17:57;5.63;;;2.28;;
35126;SDS011;21300;52.006;5.798;2022-09-09T05:20:24;10.45;;;2.38;;
35126;SDS011;21300;52.006;5.798;2022-09-09T05:22:52;9.18;;;2.75;;
35126;SDS011;21300;52.006;5.798;2022-09-09T05:25:21;7.90;;;3.05;;
35126;SDS011;21300;52.006;5.798;2022-09-09T05:27:47;7.43;;;2.65;;
35126;SDS011;21300;52.006;5.798;2022-09-09T05:30:14;4.22;;;2.42;;
35126;SDS011;21300;52.006;5.798;2022-09-09T05:32:40;7.28;;;2.45;;
35126;SDS011;21300;52.006;5.798;2022-09-09T05:35:06;5.20;;;2.70;;
35126;SDS011;21300;52.006;5.798;2022-09-09T05:37:31;5.97;;;2.50;;
35126;SDS011;21300;52.006;5.798;2022-09-09T05:39:57;6.13;;;2.50;;
35126;SDS011;21300;52.006;5.798;2022-09-09T05:42:23;6.47;;;2.58;;
35126;SDS011;21300;52.006;5.798;2022-09-09T05:44:49;5.07;;;2.10;;
35126;SDS011;21300;52.006;5.798;2022-09-09T05:47:16;4.95;;;2.33;;
35126;SDS011;21300;52.006;5.798;2022-09-09T05:49:42;6.05;;;2.40;;
35126;SDS011;21300;52.006;5.798;2022-09-09T05:52:08;5.32;;;2.20;;
35126;SDS011;21300;52.006;5.798;2022-09-09T05:54:34;6.68;;;2.38;;
35126;SDS011;21300;52.006;5.798;2022-09-09T05:57:01;6.35;;;2.40;;
35126;SDS011;21300;52.006;5.798;2022-09-09T05:59:27;10.90;;;2.60;;
35126;SDS011;21300;52.006;5.798;2022-09-09T06:01:53;5.57;;;1.80;;
35126;SDS011;21300;52.006;5.798;2022-09-09T06:04:19;8.30;;;2.47;;
35126;SDS011;21300;52.006;5.798;2022-09-09T06:06:47;5.93;;;2.42;;
35126;SDS011;21300;52.006;5.798;2022-09-09T06:09:13;6.28;;;2.42;;
35126;SDS011;21300;52.006;5.798;2022-09-09T06:11:40;13.27;;;2.70;;
35126;SDS011;21300;52.006;5.798;2022-09-09T06:14:06;6.40;;;2.30;;
35126;SDS011;21300;52.006;5.798;2022-09-09T06:16:33;8.00;;;2.50;;
35126;SDS011;21300;52.006;5.798;2022-09-09T06:18:59;8.85;;;2.75;;
35126;SDS011;21300;52.006;5.798;2022-09-09T06:21:27;4.63;;;2.15;;
35126;SDS011;21300;52.006;5.798;2022-09-09T06:23:57;11.23;;;2.88;;
35126;SDS011;21300;52.006;5.798;2022-09-09T06:26:24;5.28;;;2.30;;
35126;SDS011;21300;52.006;5.798;2022-09-09T06:28:52;6.13;;;2.25;;
35126;SDS011;21300;52.006;5.798;2022-09-09T06:31:20;7.57;;;2.72;;
35126;SDS011;21300;52.006;5.798;2022-09-09T06:33:47;8.75;;;2.20;;
35126;SDS011;21300;52.006;5.798;2022-09-09T06:36:16;4.20;;;1.92;;
35126;SDS011;21300;52.006;5.798;2022-09-09T06:38:43;9.95;;;2.28;;
35126;SDS011;21300;52.006;5.798;2022-09-09T06:41:10;9.73;;;2.53;;
35126;SDS011;21300;52.006;5.798;2022-09-09T06:43:37;8.27;;;2.40;;
35126;SDS011;21300;52.006;5.798;2022-09-09T06:46:10;9.40;;;2.50;;
35126;SDS011;21300;52.006;5.798;2022-09-09T06:48:40;7.82;;;2.58;;
35126;SDS011;21300;52.006;5.798;2022-09-09T06:51:08;7.28;;;2.17;;
35126;SDS011;21300;52.006;5.798;2022-09-09T06:53:37;9.98;;;2.47;;
35126;SDS011;21300;52.006;5.798;2022-09-09T06:58:44;6.63;;;2.80;;
35126;SDS011;21300;52.006;5.798;2022-09-09T07:01:11;7.72;;;2.35;;
35126;SDS011;21300;52.006;5.798;2022-09-09T07:03:41;8.98;;;2.40;;
35126;SDS011;21300;52.006;5.798;2022-09-09T07:06:13;10.10;;;2.70;;
35126;SDS011;21300;52.006;5.798;2022-09-09T07:08:41;8.95;;;3.08;;
35126;SDS011;21300;52.006;5.798;2022-09-09T07:11:08;7.18;;;2.30;;
35126;SDS011;21300;52.006;5.798;2022-09-09T07:13:34;7.32;;;2.67;;
35126;SDS011;21300;52.006;5.798;2022-09-09T07:16:07;5.40;;;2.30;;
35126;SDS011;21300;52.006;5.798;2022-09-09T07:18:38;10.98;;;2.72;;
35126;SDS011;21300;52.006;5.798;2022-09-09T07:21:05;7.38;;;2.40;;
35126;SDS011;21300;52.006;5.798;2022-09-09T07:23:31;9.70;;;2.75;;
35126;SDS011;21300;52.006;5.798;2022-09-09T07:25:57;10.18;;;2.75;;
35126;SDS011;21300;52.006;5.798;2022-09-09T07:28:24;11.65;;;3.13;;
35126;SDS011;21300;52.006;5.798;2022-09-09T07:30:57;9.65;;;2.60;;
35126;SDS011;21300;52.006;5.798;2022-09-09T07:33:26;5.20;;;2.50;;
35126;SDS011;21300;52.006;5.798;2022-09-09T07:35:52;7.38;;;2.88;;
35126;SDS011;21300;52.006;5.798;2022-09-09T07:38:18;8.98;;;2.47;;
35126;SDS011;21300;52.006;5.798;2022-09-09T07:40:45;11.60;;;2.88;;
35126;SDS011;21300;52.006;5.798;2022-09-09T07:43:11;8.35;;;2.42;;
35126;SDS011;21300;52.006;5.798;2022-09-09T07:45:37;8.50;;;2.28;;
35126;SDS011;21300;52.006;5.798;2022-09-09T07:48:02;10.00;;;2.38;;
35126;SDS011;21300;52.006;5.798;2022-09-09T07:50:29;7.75;;;2.53;;
35126;SDS011;21300;52.006;5.798;2022-09-09T07:52:55;5.22;;;1.75;;
35126;SDS011;21300;52.006;5.798;2022-09-09T07:55:21;7.75;;;2.63;;
35126;SDS011;21300;52.006;5.798;2022-09-09T07:57:52;10.00;;;2.50;;
35126;SDS011;21300;52.006;5.798;2022-09-09T08:00:18;9.55;;;2.55;;
35126;SDS011;21300;52.006;5.798;2022-09-09T08:02:47;8.80;;;2.08;;
35126;SDS011;21300;52.006;5.798;2022-09-09T08:05:13;12.45;;;2.85;;
35126;SDS011;21300;52.006;5.798;2022-09-09T08:07:40;6.57;;;2.50;;
35126;SDS011;21300;52.006;5.798;2022-09-09T08:10:05;7.40;;;2.22;;
35126;SDS011;21300;52.006;5.798;2022-09-09T08:12:32;6.55;;;2.00;;
35126;SDS011;21300;52.006;5.798;2022-09-09T08:14:58;11.95;;;2.80;;
35126;SDS011;21300;52.006;5.798;2022-09-09T08:17:23;9.98;;;4.22;;
35126;SDS011;21300;52.006;5.798;2022-09-09T08:19:49;7.25;;;2.67;;
35126;SDS011;21300;52.006;5.798;2022-09-09T08:22:15;8.57;;;2.30;;
35126;SDS011;21300;52.006;5.798;2022-09-09T08:24:40;8.77;;;2.42;;
35126;SDS011;21300;52.006;5.798;2022-09-09T08:27:06;6.95;;;1.98;;
35126;SDS011;21300;52.006;5.798;2022-09-09T08:29:32;4.68;;;1.90;;
35126;SDS011;21300;52.006;5.798;2022-09-09T08:31:58;6.55;;;2.20;;
35126;SDS011;21300;52.006;5.798;2022-09-09T08:34:25;10.30;;;2.40;;
35126;SDS011;21300;52.006;5.798;2022-09-09T08:36:52;8.50;;;2.80;;
35126;SDS011;21300;52.006;5.798;2022-09-09T08:39:19;9.93;;;2.30;;
35126;SDS011;21300;52.006;5.798;2022-09-09T08:53:00;9.98;;;2.30;;
35126;SDS011;21300;52.006;5.798;2022-09-09T08:58:18;6.07;;;1.95;;
35126;SDS011;21300;52.006;5.798;2022-09-09T09:06:21;8.48;;;1.63;;
35126;SDS011;21300;52.006;5.798;2022-09-09T09:11:47;6.72;;;1.85;;
35126;SDS011;21300;52.006;5.798;2022-09-09T09:14:23;10.68;;;1.92;;
35126;SDS011;21300;52.006;5.798;2022-09-09T09:16:54;7.32;;;1.25;;
35126;SDS011;21300;52.006;5.798;2022-09-09T09:19:32;7.68;;;1.63;;
35126;SDS011;21300;52.006;5.798;2022-09-09T09:25:22;7.32;;;1.77;;
35126;SDS011;21300;52.006;5.798;2022-09-09T09:30:23;7.05;;;1.52;;
35126;SDS011;21300;52.006;5.798;2022-09-09T09:35:51;6.22;;;1.52;;
35126;SDS011;21300;52.006;5.798;2022-09-09T09:40:53;6.93;;;2.20;;
35126;SDS011;21300;52.006;5.798;2022-09-09T09:43:29;7.00;;;1.20;;
35126;SDS011;21300;52.006;5.798;2022-09-09T09:45:57;8.97;;;1.67;;
35126;SDS011;21300;52.006;5.798;2022-09-09T09:48:24;6.15;;;1.45;;
35126;SDS011;21300;52.006;5.798;2022-09-09T09:51:01;7.10;;;1.35;;
35126;SDS011;21300;52.006;5.798;2022-09-09T09:53:36;4.25;;;0.77;;
35126;SDS011;21300;52.006;5.798;2022-09-09T09:56:04;7.40;;;1.58;;
35126;SDS011;21300;52.006;5.798;2022-09-09T10:01:03;5.78;;;1.40;;
35126;SDS011;21300;52.006;5.798;2022-09-09T10:03:30;7.38;;;1.60;;
35126;SDS011;21300;52.006;5.798;2022-09-09T10:05:57;6.68;;;1.63;;
35126;SDS011;21300;52.006;5.798;2022-09-09T10:08:23;6.43;;;1.33;;
35126;SDS011;21300;52.006;5.798;2022-09-09T10:13:36;9.27;;;1.75;;
35126;SDS011;21300;52.006;5.798;2022-09-09T10:16:37;10.45;;;1.90;;
35126;SDS011;21300;52.006;5.798;2022-09-09T10:19:15;5.15;;;1.40;;
35126;SDS011;21300;52.006;5.798;2022-09-09T10:30:19;8.40;;;1.83;;
35126;SDS011;21300;52.006;5.798;2022-09-09T10:36:13;4.68;;;1.45;;
35126;SDS011;21300;52.006;5.798;2022-09-09T10:38:46;9.02;;;2.17;;
35126;SDS011;21300;52.006;5.798;2022-09-09T10:41:18;7.00;;;1.95;;
35126;SDS011;21300;52.006;5.798;2022-09-09T10:57:16;5.93;;;1.60;;
35126;SDS011;21300;52.006;5.798;2022-09-09T11:00:04;6.70;;;1.52;;
35126;SDS011;21300;52.006;5.798;2022-09-09T11:02:33;5.28;;;1.65;;
35126;SDS011;21300;52.006;5.798;2022-09-09T11:05:04;5.68;;;1.42;;
35126;SDS011;21300;52.006;5.798;2022-09-09T11:07:41;7.03;;;1.40;;
35126;SDS011;21300;52.006;5.798;2022-09-09T11:10:24;8.05;;;1.83;;
35126;SDS011;21300;52.006;5.798;2022-09-09T11:13:02;8.57;;;1.80;;
35126;SDS011;21300;52.006;5.798;2022-09-09T11:15:40;7.20;;;1.80;;
35126;SDS011;21300;52.006;5.798;2022-09-09T11:18:11;9.70;;;1.73;;
35126;SDS011;21300;52.006;5.798;2022-09-09T11:20:43;10.80;;;2.08;;
35126;SDS011;21300;52.006;5.798;2022-09-09T11:23:12;9.35;;;1.98;;
35126;SDS011;21300;52.006;5.798;2022-09-09T11:25:43;7.45;;;2.13;;
35126;SDS011;21300;52.006;5.798;2022-09-09T11:28:28;8.60;;;2.20;;
35126;SDS011;21300;52.006;5.798;2022-09-09T11:39:07;12.45;;;3.22;;
35126;SDS011;21300;52.006;5.798;2022-09-09T11:42:16;6.93;;;2.63;;
35126;SDS011;21300;52.006;5.798;2022-09-09T11:44:45;9.32;;;2.90;;
35126;SDS011;21300;52.006;5.798;2022-09-09T11:47:27;10.27;;;2.25;;
35126;SDS011;21300;52.006;5.798;2022-09-09T11:49:55;6.95;;;1.80;;
35126;SDS011;21300;52.006;5.798;2022-09-09T11:52:42;6.03;;;1.90;;
35126;SDS011;21300;52.006;5.798;2022-09-09T12:00:33;7.07;;;1.75;;
35126;SDS011;21300;52.006;5.798;2022-09-09T12:03:02;3.97;;;1.40;;
35126;SDS011;21300;52.006;5.798;2022-09-09T12:05:39;9.27;;;1.83;;
35126;SDS011;21300;52.006;5.798;2022-09-09T12:08:09;2.92;;;1.05;;
35126;SDS011;21300;52.006;5.798;2022-09-09T12:10:38;5.47;;;1.67;;
35126;SDS011;21300;52.006;5.798;2022-09-09T12:13:21;4.38;;;1.65;;
35126;SDS011;21300;52.006;5.798;2022-09-09T12:15:52;5.78;;;1.60;;
35126;SDS011;21300;52.006;5.798;2022-09-09T12:18:23;7.30;;;2.00;;
35126;SDS011;21300;52.006;5.798;2022-09-09T12:23:43;6.53;;;1.98;;
35126;SDS011;21300;52.006;5.798;2022-09-09T12:26:37;6.20;;;1.83;;
35126;SDS011;21300;52.006;5.798;2022-09-09T12:31:51;4.65;;;1.85;;
35126;SDS011;21300;52.006;5.798;2022-09-09T12:36:59;5.57;;;1.80;;
35126;SDS011;21300;52.006;5.798;2022-09-09T12:39:35;6.65;;;2.15;;
35126;SDS011;21300;52.006;5.798;2022-09-09T12:42:20;3.63;;;1.58;;
35126;SDS011;21300;52.006;5.798;2022-09-09T12:45:14;6.05;;;1.70;;
35126;SDS011;21300;52.006;5.798;2022-09-09T12:50:27;5.65;;;1.70;;
35126;SDS011;21300;52.006;5.798;2022-09-09T12:52:55;8.00;;;2.10;;
35126;SDS011;21300;52.006;5.798;2022-09-09T12:55:29;7.05;;;1.98;;
35126;SDS011;21300;52.006;5.798;2022-09-09T12:57:58;4.68;;;1.80;;
35126;SDS011;21300;52.006;5.798;2022-09-09T13:00:26;5.20;;;2.00;;
35126;SDS011;21300;52.006;5.798;2022-09-09T13:02:54;5.95;;;1.70;;
35126;SDS011;21300;52.006;5.798;2022-09-09T13:05:23;5.65;;;2.25;;
35126;SDS011;21300;52.006;5.798;2022-09-09T13:07:51;3.53;;;1.33;;
35126;SDS011;21300;52.006;5.798;2022-09-09T13:10:26;4.30;;;1.48;;
35126;SDS011;21300;52.006;5.798;2022-09-09T13:12:56;4.47;;;1.15;;
35126;SDS011;21300;52.006;5.798;2022-09-09T13:15:23;4.35;;;1.55;;
35126;SDS011;21300;52.006;5.798;2022-09-09T13:17:59;4.30;;;1.80;;
35126;SDS011;21300;52.006;5.798;2022-09-09T13:20:30;4.85;;;1.90;;
35126;SDS011;21300;52.006;5.798;2022-09-09T13:22:56;4.38;;;1.83;;
35126;SDS011;21300;52.006;5.798;2022-09-09T13:25:26;3.60;;;1.50;;
35126;SDS011;21300;52.006;5.798;2022-09-09T13:28:03;3.13;;;1.73;;
35126;SDS011;21300;52.006;5.798;2022-09-09T13:35:45;5.32;;;1.85;;
35126;SDS011;21300;52.006;5.798;2022-09-09T13:38:22;4.80;;;2.10;;
35126;SDS011;21300;52.006;5.798;2022-09-09T13:41:06;2.55;;;1.50;;
35126;SDS011;21300;52.006;5.798;2022-09-09T13:43:52;5.70;;;1.73;;
35126;SDS011;21300;52.006;5.798;2022-09-09T13:48:56;4.20;;;1.85;;
35126;SDS011;21300;52.006;5.798;2022-09-09T13:51:28;5.13;;;1.70;;
35126;SDS011;21300;52.006;5.798;2022-09-09T13:53:57;4.45;;;1.88;;
35126;SDS011;21300;52.006;5.798;2022-09-09T13:56:24;6.93;;;2.03;;
35126;SDS011;21300;52.006;5.798;2022-09-09T13:58:49;3.28;;;1.70;;
35126;SDS011;21300;52.006;5.798;2022-09-09T14:01:15;4.88;;;1.90;;
35126;SDS011;21300;52.006;5.798;2022-09-09T14:03:40;4.00;;;1.38;;
35126;SDS011;21300;52.006;5.798;2022-09-09T14:06:06;6.03;;;1.50;;
35126;SDS011;21300;52.006;5.798;2022-09-09T14:08:32;4.93;;;1.80;;
35126;SDS011;21300;52.006;5.798;2022-09-09T14:11:02;6.75;;;1.83;;
35126;SDS011;21300;52.006;5.798;2022-09-09T14:13:28;5.72;;;1.50;;
35126;SDS011;21300;52.006;5.798;2022-09-09T14:15:54;4.40;;;1.52;;
35126;SDS011;21300;52.006;5.798;2022-09-09T14:18:20;3.55;;;1.40;;
35126;SDS011;21300;52.006;5.798;2022-09-09T14:20:47;6.25;;;1.48;;
35126;SDS011;21300;52.006;5.798;2022-09-09T14:23:13;5.43;;;1.45;;
35126;SDS011;21300;52.006;5.798;2022-09-09T14:25:40;4.25;;;1.20;;
35126;SDS011;21300;52.006;5.798;2022-09-09T14:28:08;6.93;;;1.35;;
35126;SDS011;21300;52.006;5.798;2022-09-09T14:30:34;4.95;;;1.30;;
35126;SDS011;21300;52.006;5.798;2022-09-09T14:33:01;5.32;;;1.40;;
35126;SDS011;21300;52.006;5.798;2022-09-09T14:35:27;4.40;;;1.20;;
35126;SDS011;21300;52.006;5.798;2022-09-09T14:37:53;4.47;;;1.38;;
35126;SDS011;21300;52.006;5.798;2022-09-09T14:40:18;6.75;;;1.63;;
35126;SDS011;21300;52.006;5.798;2022-09-09T14:42:44;6.45;;;1.88;;
35126;SDS011;21300;52.006;5.798;2022-09-09T14:45:09;6.07;;;1.58;;
35126;SDS011;21300;52.006;5.798;2022-09-09T14:47:36;4.43;;;1.80;;
35126;SDS011;21300;52.006;5.798;2022-09-09T14:50:03;5.55;;;1.42;;
35126;SDS011;21300;52.006;5.798;2022-09-09T14:52:30;8.07;;;1.50;;
35126;SDS011;21300;52.006;5.798;2022-09-09T14:54:55;7.05;;;1.50;;
35126;SDS011;21300;52.006;5.798;2022-09-09T14:57:22;4.10;;;1.50;;
35126;SDS011;21300;52.006;5.798;2022-09-09T14:59:47;5.78;;;1.40;;
35126;SDS011;21300;52.006;5.798;2022-09-09T15:02:15;4.97;;;1.30;;
35126;SDS011;21300;52.006;5.798;2022-09-09T15:04:41;6.22;;;1.65;;
35126;SDS011;21300;52.006;5.798;2022-09-09T15:07:07;9.23;;;2.05;;
35126;SDS011;21300;52.006;5.798;2022-09-09T15:09:32;6.05;;;2.22;;
35126;SDS011;21300;52.006;5.798;2022-09-09T15:11:58;3.65;;;1.50;;
35126;SDS011;21300;52.006;5.798;2022-09-09T15:14:24;5.45;;;2.45;;
35126;SDS011;21300;52.006;5.798;2022-09-09T15:16:51;8.50;;;2.13;;
35126;SDS011;21300;52.006;5.798;2022-09-09T15:19:17;6.72;;;2.08;;
35126;SDS011;21300;52.006;5.798;2022-09-09T15:21:42;5.20;;;1.73;;
35126;SDS011;21300;52.006;5.798;2022-09-09T15:24:08;8.25;;;2.35;;
35126;SDS011;21300;52.006;5.798;2022-09-09T15:26:33;6.28;;;2.10;;
35126;SDS011;21300;52.006;5.798;2022-09-09T15:29:01;4.18;;;1.85;;
35126;SDS011;21300;52.006;5.798;2022-09-09T15:31:28;6.25;;;2.00;;
35126;SDS011;21300;52.006;5.798;2022-09-09T15:33:59;5.85;;;2.25;;
35126;SDS011;21300;52.006;5.798;2022-09-09T15:36:27;8.40;;;2.88;;
35126;SDS011;21300;52.006;5.798;2022-09-09T15:39:07;7.88;;;2.40;;
35126;SDS011;21300;52.006;5.798;2022-09-09T15:41:37;10.55;;;2.75;;
35126;SDS011;21300;52.006;5.798;2022-09-09T15:44:04;10.50;;;3.08;;
35126;SDS011;21300;52.006;5.798;2022-09-09T15:46:43;5.03;;;2.47;;
35126;SDS011;21300;52.006;5.798;2022-09-09T15:49:20;6.40;;;2.60;;
35126;SDS011;21300;52.006;5.798;2022-09-09T15:51:56;5.53;;;2.85;;
35126;SDS011;21300;52.006;5.798;2022-09-09T15:54:25;7.30;;;2.90;;
35126;SDS011;21300;52.006;5.798;2022-09-09T15:56:53;6.30;;;2.78;;
35126;SDS011;21300;52.006;5.798;2022-09-09T15:59:21;6.82;;;2.85;;
35126;SDS011;21300;52.006;5.798;2022-09-09T16:01:47;11.45;;;3.80;;
35126;SDS011;21300;52.006;5.798;2022-09-09T16:04:16;7.13;;;2.90;;
35126;SDS011;21300;52.006;5.798;2022-09-09T16:06:48;6.47;;;2.30;;
35126;SDS011;21300;52.006;5.798;2022-09-09T16:09:18;7.18;;;2.58;;
35126;SDS011;21300;52.006;5.798;2022-09-09T16:11:45;5.25;;;1.90;;
35126;SDS011;21300;52.006;5.798;2022-09-09T16:14:12;4.70;;;2.22;;
35126;SDS011;21300;52.006;5.798;2022-09-09T16:19:22;5.10;;;2.20;;
35126;SDS011;21300;52.006;5.798;2022-09-09T16:21:48;5.78;;;2.60;;
35126;SDS011;21300;52.006;5.798;2022-09-09T16:24:16;6.57;;;2.35;;
35126;SDS011;21300;52.006;5.798;2022-09-09T16:26:45;5.75;;;1.90;;
35126;SDS011;21300;52.006;5.798;2022-09-09T16:29:15;4.88;;;2.30;;
35126;SDS011;21300;52.006;5.798;2022-09-09T16:31:42;3.80;;;2.00;;
35126;SDS011;21300;52.006;5.798;2022-09-09T16:34:09;3.42;;;2.10;;
35126;SDS011;21300;52.006;5.798;2022-09-09T16:36:35;5.18;;;2.25;;
35126;SDS011;21300;52.006;5.798;2022-09-09T16:39:03;7.75;;;2.80;;
35126;SDS011;21300;52.006;5.798;2022-09-09T16:41:34;5.65;;;2.45;;
35126;SDS011;21300;52.006;5.798;2022-09-09T16:44:01;7.47;;;2.47;;
35126;SDS011;21300;52.006;5.798;2022-09-09T16:46:29;5.65;;;2.38;;
35126;SDS011;21300;52.006;5.798;2022-09-09T16:48:57;6.25;;;2.17;;
35126;SDS011;21300;52.006;5.798;2022-09-09T16:51:25;6.60;;;2.50;;
35126;SDS011;21300;52.006;5.798;2022-09-09T16:53:53;7.00;;;2.58;;
35126;SDS011;21300;52.006;5.798;2022-09-09T16:56:21;4.72;;;2.53;;
35126;SDS011;21300;52.006;5.798;2022-09-09T16:58:50;6.22;;;2.28;;
35126;SDS011;21300;52.006;5.798;2022-09-09T17:01:19;8.35;;;3.13;;
35126;SDS011;21300;52.006;5.798;2022-09-09T17:03:44;6.53;;;2.40;;
35126;SDS011;21300;52.006;5.798;2022-09-09T17:06:10;3.95;;;2.42;;
35126;SDS011;21300;52.006;5.798;2022-09-09T17:08:40;4.05;;;2.05;;
35126;SDS011;21300;52.006;5.798;2022-09-09T17:11:13;6.63;;;2.40;;
35126;SDS011;21300;52.006;5.798;2022-09-09T17:13:41;4.57;;;2.35;;
35126;SDS011;21300;52.006;5.798;2022-09-09T17:16:07;6.50;;;2.22;;
35126;SDS011;21300;52.006;5.798;2022-09-09T17:18:34;3.70;;;2.22;;
35126;SDS011;21300;52.006;5.798;2022-09-09T17:21:07;3.72;;;1.90;;
35126;SDS011;21300;52.006;5.798;2022-09-09T17:26:08;3.95;;;1.88;;
35126;SDS011;21300;52.006;5.798;2022-09-09T17:28:36;5.18;;;1.85;;